This is the latest recevied weather packets stored in our database for station/object K7GFH-13. If no packets are shown the sender has not sent any weather packets the latest 10 day(s).
| Time | Temp. | Humidity | Pressure | Rain* | Wind** | Luminosity | Snow |
|---|---|---|---|---|---|---|---|
| 1777919354 | 15.56° C | 77% | 1015.6 hPa | 0 mm | - | 277 W/m² | - |
| 1777918451 | 14.44° C | 81% | 1015.7 hPa | 0 mm | - | 340 W/m² | - |
| 1777915740 | 13.89° C | 83% | 1015.3 hPa | 0 mm | - | 242 W/m² | - |
| 1777914836 | 13.89° C | 82% | 1015.3 hPa | 0 mm | - | 256 W/m² | - |
| 1777913932 | 12.78° C | 85% | 1015.4 hPa | 0 mm | - | 200 W/m² | - |
| 1777912128 | 12.78° C | 85% | 1015.5 hPa | 0 mm | - | 143 W/m² | - |
| 1777911223 | 12.78° C | 85% | 1015.6 hPa | 0 mm | - | 127 W/m² | - |
| 1777910320 | 12.78° C | 86% | 1015.4 hPa | 0 mm | - | 128 W/m² | - |
| 1777909417 | 12.78° C | 86% | 1015.3 hPa | 0 mm | - | 131 W/m² | - |
| 1777908515 | 12.22° C | 86% | 1015.3 hPa | 0 mm | - | 120 W/m² | - |
| 1777907609 | 12.78° C | 85% | 1015.1 hPa | 0 mm | - | 118 W/m² | - |
| 1777906706 | 12.78° C | 85% | 1014.8 hPa | 0 mm | - | 121 W/m² | - |
| 1777905800 | 13.33° C | 83% | 1015 hPa | 0 mm | - | 83 W/m² | - |
| 1777904898 | 13.33° C | 82% | 1014.8 hPa | 0 mm | - | 108 W/m² | - |
| 1777903090 | 12.78° C | 85% | 1014.2 hPa | 0 mm | - | 49 W/m² | - |
| 1777902186 | 12.22° C | 86% | 1014.2 hPa | 0 mm | - | 32 W/m² | - |
| 1777901284 | 11.67° C | 87% | 1014 hPa | 0 mm | - | 20 W/m² | - |
| 1777900382 | 11.67° C | 88% | 1013.5 hPa | 0 mm | - | 10 W/m² | - |
| 1777899478 | 12.22° C | 86% | 1013.3 hPa | 0 mm | - | 3 W/m² | - |
| 1777897673 | 12.22° C | 85% | 1012.9 hPa | 0 mm | - | 0 W/m² | - |
| 1777896768 | 12.22° C | 85% | 1012.5 hPa | 0 mm | - | 0 W/m² | - |
| 1777895866 | 12.78° C | 83% | 1012.6 hPa | 0 mm | - | 0 W/m² | - |
| 1777894964 | 12.78° C | 83% | 1012.4 hPa | 0 mm | - | 0 W/m² | - |
| 1777894061 | 13.33° C | 80% | 1012.3 hPa | 0 mm | - | 0 W/m² | - |
| 1777893157 | 13.89° C | 78% | 1012.1 hPa | 0 mm | - | 0 W/m² | - |
* Rain latest hour (hover to see other rain measurements)
** Current wind speed in m/s (hover to see current wind gust speed)